METAR Data
IDs: Format: Raw Decoded Include TAF

Data at: 1217 UTC 23 Mar 2019

METAR for:PAOU (Nelson Lagoon Arpt, AK, US)
Text:PAOU 231156Z AUTO 23008KT 8SM OVC004 03/02 A2935 RMK AO2 SLP938 60000 70001 T00280022 10033 20028 51036
Temperature: 2.8°C ( 37°F)
Dewpoint: 2.2°C ( 36°F) [RH = 96%]
Pressure (altimeter):29.35 inches Hg ( 994.0 mb) [Sea level pressure: 993.8 mb]
Winds:from the SW (230 degrees) at 9 MPH (8 knots; 4.1 m/s)
Visibility: 8 sm ( 13 km)
Ceiling:400 feet AGL
Clouds: overcast cloud deck at 400 feet AGL
QC Flag:automated observation with no human augmentation
Text:PAOU 231120Z AUTO 22008KT 9SM BKN004 OVC012 03/02 A2933 RMK AO2 CIG 004V008
Temperature: 3.0°C ( 37°F)
Dewpoint: 2.0°C ( 36°F) [RH = 93%]
Pressure (altimeter):29.33 inches Hg ( 993.3 mb)
Winds:from the SW (220 degrees) at 9 MPH (8 knots; 4.1 m/s)
Visibility: 9 sm ( 14 km)
Ceiling:400 feet AGL
Clouds: broken clouds at 400 feet AGL, overcast cloud deck at 1200 feet AGL
QC Flag:automated observation with no human augmentation
Text:PAOU 231056Z AUTO 24007KT 8SM BKN006 OVC011 03/02 A2932 RMK AO2 CIG 006V010 SLP928 T00330022
Temperature: 3.3°C ( 38°F)
Dewpoint: 2.2°C ( 36°F) [RH = 92%]
Pressure (altimeter):29.32 inches Hg ( 993.0 mb) [Sea level pressure: 992.8 mb]
Winds:from the WSW (240 degrees) at 8 MPH (7 knots; 3.6 m/s)
Visibility: 8 sm ( 13 km)
Ceiling:600 feet AGL
Clouds: broken clouds at 600 feet AGL, overcast cloud deck at 1100 feet AGL
QC Flag:automated observation with no human augmentation
Text:PAOU 231025Z AUTO 23006KT 10SM BKN006 OVC017 03/02 A2930 RMK AO2 CIG 005V011
Temperature: 3.0°C ( 37°F)
Dewpoint: 2.0°C ( 36°F) [RH = 93%]
Pressure (altimeter):29.30 inches Hg ( 992.3 mb)
Winds:from the SW (230 degrees) at 7 MPH (6 knots; 3.1 m/s)
Visibility:10 or more sm (16+ km)
Ceiling:600 feet AGL
Clouds: broken clouds at 600 feet AGL, overcast cloud deck at 1700 feet AGL
QC Flag:automated observation with no human augmentation
Text:PAOU 230956Z AUTO 24008KT 10SM OVC017 03/02 A2928 RMK AO2 SLP916 T00330022
Temperature: 3.3°C ( 38°F)
Dewpoint: 2.2°C ( 36°F) [RH = 92%]
Pressure (altimeter):29.28 inches Hg ( 991.6 mb) [Sea level pressure: 991.6 mb]
Winds:from the WSW (240 degrees) at 9 MPH (8 knots; 4.1 m/s)
Visibility:10 or more sm (16+ km)
Ceiling:1700 feet AGL
Clouds: overcast cloud deck at 1700 feet AGL
QC Flag:automated observation with no human augmentation
Text:PAOU 230925Z AUTO 25007KT 8SM FEW007 OVC015 03/03 A2926 RMK AO2
Temperature: 3.0°C ( 37°F)
Dewpoint: 3.0°C ( 37°F) [RH = 100%]
Pressure (altimeter):29.26 inches Hg ( 990.9 mb)
Winds:from the WSW (250 degrees) at 8 MPH (7 knots; 3.6 m/s)
Visibility: 8 sm ( 13 km)
Ceiling:1500 feet AGL
Clouds: few clouds at 700 feet AGL, overcast cloud deck at 1500 feet AGL
QC Flag:automated observation with no human augmentation
Text:PAOU 230909Z AUTO 25007KT 10SM OVC015 03/03 A2925 RMK AO2
Temperature: 3.0°C ( 37°F)
Dewpoint: 3.0°C ( 37°F) [RH = 100%]
Pressure (altimeter):29.25 inches Hg ( 990.6 mb)
Winds:from the WSW (250 degrees) at 8 MPH (7 knots; 3.6 m/s)
Visibility:10 or more sm (16+ km)
Ceiling:1500 feet AGL
Clouds: overcast cloud deck at 1500 feet AGL
QC Flag:automated observation with no human augmentation
Text:PAOU 230856Z AUTO 25007KT 9SM OVC013 03/03 A2924 RMK AO2 SLP902 60000 T00330028 400440022 51040
Temperature: 3.3°C ( 38°F)
Dewpoint: 2.8°C ( 37°F) [RH = 97%]
Pressure (altimeter):29.24 inches Hg ( 990.3 mb) [Sea level pressure: 990.2 mb]
Winds:from the WSW (250 degrees) at 8 MPH (7 knots; 3.6 m/s)
Visibility: 9 sm ( 14 km)
Ceiling:1300 feet AGL
Clouds: overcast cloud deck at 1300 feet AGL
QC Flag:automated observation with no human augmentation
Text:PAOU 230756Z AUTO 26007KT 7SM OVC011 03/03 A2921 RMK AO2 RAE26 SLP891 P0000 T00330028
Temperature: 3.3°C ( 38°F)
Dewpoint: 2.8°C ( 37°F) [RH = 97%]
Pressure (altimeter):29.21 inches Hg ( 989.2 mb) [Sea level pressure: 989.1 mb]
Winds:from the W (260 degrees) at 8 MPH (7 knots; 3.6 m/s)
Visibility: 7 sm ( 11 km)
Ceiling:1100 feet AGL
Clouds: overcast cloud deck at 1100 feet AGL
QC Flag:automated observation with no human augmentation
Text:PAOU 230656Z AUTO 27009KT 5SM -RA BR OVC013 03/03 A2916 RMK AO2 SLP876 P0000 T00330028
Temperature: 3.3°C ( 38°F)
Dewpoint: 2.8°C ( 37°F) [RH = 97%]
Pressure (altimeter):29.16 inches Hg ( 987.6 mb) [Sea level pressure: 987.6 mb]
Winds:from the W (270 degrees) at 10 MPH (9 knots; 4.6 m/s)
Visibility: 5 sm ( 8 km)
Ceiling:1300 feet AGL
Clouds: overcast cloud deck at 1300 feet AGL
Weather:-RA BR (light rain, mist)
QC Flag:automated observation with no human augmentation
Text:PAOU 230622Z AUTO 27010KT 3SM -RA BR BKN006 OVC012 03/03 A2914 RMK AO2 P0000
Temperature: 3.0°C ( 37°F)
Dewpoint: 3.0°C ( 37°F) [RH = 100%]
Pressure (altimeter):29.14 inches Hg ( 986.9 mb)
Winds:from the W (270 degrees) at 12 MPH (10 knots; 5.1 m/s)
Visibility: 3 sm ( 5 km)
Ceiling:600 feet AGL
Clouds: broken clouds at 600 feet AGL, overcast cloud deck at 1200 feet AGL
Weather:-RA BR (light rain, mist)
QC Flag:automated observation with no human augmentation

TAF for:PAOU (Nelson Lagoon Arpt, AK, US)
Text:No data found